Time;durP1;ratioP1;P1;durP2;ratioP2;P2;SDS_P1;SDS_P2;PMS_P1;PMS_P2;Temp;Humidity;BMP_temperature;BMP_pressure;BME280_temperature;BME280_humidity;BME280_pressure;Samples;Min_cycle;Max_cycle;Signal;HPM_P1;HPM_P2
2023/03/13 00:01:17;;;;;;;4.78;2.10;;;6.20;99.90;;;;;;4977153;28;20038;-40
2023/03/13 00:03:43;;;;;;;4.63;2.50;;;6.20;99.90;;;;;;4978325;28;20037;-40
2023/03/13 00:06:09;;;;;;;2.42;2.13;;;6.20;99.90;;;;;;4980218;28;20031;-40
2023/03/13 00:08:35;;;;;;;4.93;2.45;;;6.10;99.90;;;;;;4979548;28;20032;-41
2023/03/13 00:11:05;;;;;;;3.95;3.58;;;6.10;99.90;;;;;;4983966;28;20466;-41
2023/03/13 00:13:31;;;;;;;4.38;2.75;;;6.00;99.90;;;;;;4977160;28;20049;-40
2023/03/13 00:16:09;;;;;;;2.35;1.88;;;6.00;99.90;;;;;;4981258;28;20033;-40
2023/03/13 00:18:35;;;;;;;2.05;1.70;;;6.00;99.90;;;;;;4987040;28;20086;-40
2023/03/13 00:21:10;;;;;;;3.45;1.63;;;5.90;99.90;;;;;;4979401;28;20045;-40
2023/03/13 00:23:37;;;;;;;2.95;1.60;;;5.90;99.90;;;;;;4975199;28;20027;-40
2023/03/13 00:26:05;;;;;;;1.77;1.67;;;5.90;99.90;;;;;;4979802;28;20038;-40
2023/03/13 00:28:33;;;;;;;2.47;1.70;;;5.80;99.90;;;;;;4983332;28;20034;-41
2023/03/13 00:31:08;;;;;;;2.30;1.73;;;5.80;99.90;;;;;;4979456;28;20038;-40
2023/03/13 00:33:39;;;;;;;1.73;1.60;;;5.80;99.90;;;;;;4980950;28;20499;-41
2023/03/13 00:36:08;;;;;;;1.67;1.58;;;5.90;99.90;;;;;;4978021;28;20088;-40
2023/03/13 00:38:33;;;;;;;;;;;5.80;99.90;;;;;;4991461;28;20026;-40
2023/03/13 00:41:04;;;;;;;6.78;1.50;;;5.80;99.90;;;;;;4980355;28;19910;-39
2023/03/13 00:43:31;;;;;;;2.10;1.40;;;5.70;99.90;;;;;;4989429;28;20038;-41
2023/03/13 00:45:57;;;;;;;3.03;1.65;;;5.70;99.90;;;;;;4978940;28;20034;-39
2023/03/13 00:48:23;;;;;;;3.28;1.50;;;5.70;99.90;;;;;;4977496;28;20023;-41
2023/03/13 00:50:49;;;;;;;5.03;1.58;;;5.70;99.90;;;;;;4977521;28;20397;-40
2023/03/13 00:53:15;;;;;;;2.40;1.48;;;5.70;99.90;;;;;;4979054;28;20057;-42
2023/03/13 00:55:59;;;;;;;2.08;1.50;;;5.70;99.90;;;;;;4976967;28;20041;-41
2023/03/13 00:58:26;;;;;;;3.15;1.20;;;5.70;99.90;;;;;;4977405;28;20034;-41
2023/03/13 01:00:53;;;;;;;2.40;1.35;;;5.70;99.90;;;;;;4988975;28;20088;-41
2023/03/13 01:03:20;;;;;;;2.58;1.48;;;5.70;99.90;;;;;;4983821;28;20121;-41
2023/03/13 01:05:58;;;;;;;1.30;1.20;;;5.70;99.90;;;;;;4983929;28;20030;-41
2023/03/13 01:08:23;;;;;;;1.80;1.25;;;5.60;99.90;;;;;;4977799;28;20027;-41
2023/03/13 01:10:49;;;;;;;3.50;1.98;;;5.60;99.90;;;;;;4986810;28;20381;-40
2023/03/13 01:13:15;;;;;;;4.20;1.58;;;5.60;99.90;;;;;;4978009;28;20492;-41
2023/03/13 01:15:41;;;;;;;1.80;1.20;;;5.60;99.90;;;;;;4987601;28;20433;-41
2023/03/13 01:18:06;;;;;;;1.83;1.10;;;5.60;99.90;;;;;;4981662;28;20492;-40
2023/03/13 01:20:32;;;;;;;2.08;1.40;;;5.60;99.90;;;;;;4986267;28;20393;-40
2023/03/13 01:22:57;;;;;;;4.00;1.40;;;5.60;99.90;;;;;;4978367;28;20526;-40
2023/03/13 01:25:23;;;;;;;2.88;1.25;;;5.60;99.90;;;;;;4983763;28;20615;-41
2023/03/13 01:27:48;;;;;;;3.17;1.42;;;5.60;99.90;;;;;;4985145;28;20035;-40
2023/03/13 01:30:14;;;;;;;2.30;1.25;;;5.60;99.90;;;;;;4986484;28;20384;-40
2023/03/13 01:32:40;;;;;;;1.95;1.38;;;5.60;99.90;;;;;;4975287;28;20484;-40
2023/03/13 01:35:06;;;;;;;3.42;1.55;;;5.60;99.90;;;;;;4983733;28;20035;-40
2023/03/13 01:37:32;;;;;;;2.95;1.75;;;5.60;99.90;;;;;;4980339;28;20035;-41
2023/03/13 01:39:58;;;;;;;3.50;1.30;;;5.60;99.90;;;;;;4981562;28;20042;-40
2023/03/13 01:42:23;;;;;;;1.27;1.10;;;5.60;99.90;;;;;;4975505;28;20400;-40
2023/03/13 01:44:51;;;;;;;1.65;1.25;;;5.60;99.90;;;;;;4984696;28;20193;-40
2023/03/13 01:47:17;;;;;;;1.75;1.25;;;5.60;99.90;;;;;;4979792;28;20469;-41
2023/03/13 01:49:43;;;;;;;3.25;1.55;;;5.60;99.90;;;;;;4978865;28;20022;-40
2023/03/13 01:52:15;;;;;;;2.75;1.23;;;5.60;99.90;;;;;;4978918;28;20030;-40
2023/03/13 01:54:53;;;;;;;1.15;1.10;;;5.70;99.90;;;;;;4982069;28;20127;-40
2023/03/13 01:57:25;;;;;;;2.43;0.97;;;5.70;99.90;;;;;;4982838;28;20031;-41
2023/03/13 02:00:18;;;;;;;2.30;1.40;;;5.70;99.90;;;;;;4985493;28;20031;-40
2023/03/13 02:02:50;;;;;;;1.73;0.90;;;5.60;99.90;;;;;;4987805;28;20045;-32
2023/03/13 02:05:19;;;;;;;3.03;1.52;;;5.50;99.90;;;;;;4989707;28;20566;-33
2023/03/13 02:07:49;;;;;;;4.90;1.77;;;5.50;99.90;;;;;;4990688;28;20076;-33
2023/03/13 02:10:16;;;;;;;1.10;1.10;;;5.40;99.90;;;;;;4988821;28;20034;-35
2023/03/13 02:12:43;;;;;;;4.47;1.20;;;5.40;99.90;;;;;;4990749;28;20018;-34
2023/03/13 02:15:15;;;;;;;1.45;1.27;;;5.50;99.90;;;;;;4981677;28;20102;-34
2023/03/13 02:17:41;;;;;;;3.95;1.20;;;5.50;99.90;;;;;;4986360;28;20504;-35
2023/03/13 02:20:08;;;;;;;1.90;1.30;;;5.40;99.90;;;;;;4990241;28;20038;-34
2023/03/13 02:22:49;;;;;;;2.05;1.27;;;5.50;99.90;;;;;;4991495;28;20042;-35
2023/03/13 02:25:22;;;;;;;3.90;1.27;;;5.50;99.90;;;;;;4983360;28;20030;-35
2023/03/13 02:27:50;;;;;;;1.63;1.30;;;5.50;99.90;;;;;;4986530;28;20027;-34
2023/03/13 02:30:15;;;;;;;2.30;1.30;;;5.60;99.90;;;;;;4993560;28;20487;-34
2023/03/13 02:32:43;;;;;;;3.78;1.30;;;5.60;99.90;;;;;;4986238;28;20314;-35
2023/03/13 02:35:11;;;;;;;1.95;1.30;;;5.60;99.90;;;;;;4989508;28;20041;-31
2023/03/13 02:37:39;;;;;;;1.48;1.23;;;5.70;99.90;;;;;;4987535;28;20030;-36
2023/03/13 02:40:10;;;;;;;1.17;1.10;;;5.70;99.90;;;;;;4990008;28;20037;-35
2023/03/13 02:42:39;;;;;;;2.53;1.58;;;5.70;99.90;;;;;;4989582;28;20033;-32
2023/03/13 02:45:05;;;;;;;5.85;2.33;;;5.70;99.90;;;;;;4986431;28;20038;-34
2023/03/13 02:47:31;;;;;;;9.30;4.03;;;5.70;99.90;;;;;;4982811;28;20551;-35
2023/03/13 02:49:56;;;;;;;6.45;2.90;;;5.70;99.90;;;;;;4986791;28;20078;-33
2023/03/13 02:52:37;;;;;;;8.98;7.43;;;5.70;99.90;;;;;;4989748;28;20021;-36
2023/03/13 02:55:27;;;;;;;49.05;43.83;;;5.80;99.90;;;;;;4985245;28;20035;-34
2023/03/13 02:57:52;;;;;;;10.80;9.77;;;5.80;99.90;;;;;;4993210;28;20041;-34
2023/03/13 03:00:18;;;;;;;11.43;10.32;;;5.80;99.90;;;;;;4992761;28;20110;-36
2023/03/13 03:02:44;;;;;;;10.90;9.70;;;5.80;99.90;;;;;;4989867;28;20019;-35
2023/03/13 03:05:11;;;;;;;7.38;6.68;;;5.80;99.90;;;;;;4980366;28;20049;-33
2023/03/13 03:07:37;;;;;;;5.05;3.92;;;5.80;99.90;;;;;;4979949;28;20544;-36
2023/03/13 03:10:03;;;;;;;2.90;1.95;;;5.80;99.90;;;;;;4981820;28;20729;-34
2023/03/13 03:12:28;;;;;;;2.10;1.90;;;5.80;99.90;;;;;;4987887;28;20057;-35
2023/03/13 03:14:54;;;;;;;2.00;1.80;;;5.80;99.90;;;;;;4981651;28;20089;-34
2023/03/13 03:17:20;;;;;;;2.03;1.00;;;5.80;99.90;;;;;;4984978;28;20026;-33
2023/03/13 03:19:45;;;;;;;2.53;1.35;;;5.80;99.90;;;;;;4984743;28;20101;-34
2023/03/13 03:22:11;;;;;;;1.75;1.30;;;5.80;99.90;;;;;;4979101;28;20063;-36
2023/03/13 03:24:36;;;;;;;5.05;1.60;;;5.80;99.90;;;;;;4983673;28;20543;-35
2023/03/13 03:27:02;;;;;;;2.30;1.80;;;5.80;99.90;;;;;;4982266;28;20062;-32
2023/03/13 03:29:28;;;;;;;2.15;1.75;;;5.80;99.90;;;;;;4981298;28;20029;-32
2023/03/13 03:31:53;;;;;;;3.28;1.95;;;5.80;99.90;;;;;;4982783;28;20042;-34
2023/03/13 03:34:20;;;;;;;1.80;1.50;;;5.80;99.90;;;;;;4983103;28;20023;-34
2023/03/13 03:36:45;;;;;;;1.60;1.50;;;5.80;99.90;;;;;;4981852;28;20145;-34
2023/03/13 03:39:11;;;;;;;1.50;1.20;;;5.80;99.90;;;;;;4979987;28;20051;-36
2023/03/13 03:41:36;;;;;;;1.70;1.40;;;5.80;99.90;;;;;;4982722;28;20056;-34
2023/03/13 03:44:03;;;;;;;2.47;1.30;;;5.90;99.90;;;;;;4987017;28;20033;-33
2023/03/13 03:46:28;;;;;;;1.75;1.30;;;5.90;99.90;;;;;;5015109;28;20026;-39
2023/03/13 03:48:54;;;;;;;1.30;1.10;;;5.90;99.90;;;;;;4990515;28;20081;-34
2023/03/13 03:51:20;;;;;;;2.05;1.08;;;5.90;99.90;;;;;;4982868;28;20042;-35
2023/03/13 03:53:46;;;;;;;2.05;1.10;;;5.90;99.90;;;;;;4984696;28;20509;-34
2023/03/13 03:56:11;;;;;;;0.90;0.90;;;5.80;99.90;;;;;;4984145;28;20088;-35
2023/03/13 03:58:37;;;;;;;1.20;1.10;;;5.80;99.90;;;;;;4984441;28;20034;-33
2023/03/13 04:01:03;;;;;;;1.23;1.23;;;5.80;99.90;;;;;;4983289;28;20058;-32
2023/03/13 04:03:29;;;;;;;1.80;1.33;;;5.80;99.90;;;;;;4980092;28;20039;-35
2023/03/13 04:05:54;;;;;;;1.63;1.10;;;5.80;99.90;;;;;;4978349;28;20037;-33
2023/03/13 04:08:21;;;;;;;1.42;1.33;;;5.80;99.90;;;;;;4985595;28;20603;-34
2023/03/13 04:10:47;;;;;;;1.00;1.00;;;5.80;99.90;;;;;;5002318;28;20023;-35
2023/03/13 04:13:12;;;;;;;3.05;1.33;;;5.80;99.90;;;;;;4982101;28;20039;-33
2023/03/13 04:15:39;;;;;;;1.35;1.08;;;5.70;99.90;;;;;;4985179;28;20434;-33
2023/03/13 04:18:05;;;;;;;1.25;1.08;;;5.70;99.90;;;;;;4982789;28;20057;-34
2023/03/13 04:20:30;;;;;;;2.33;1.50;;;5.70;99.90;;;;;;4985850;28;20089;-36
2023/03/13 04:22:56;;;;;;;2.22;1.40;;;5.70;99.90;;;;;;5010529;28;20023;-35
2023/03/13 04:25:22;;;;;;;3.33;1.40;;;5.70;99.90;;;;;;4982746;28;20035;-33
2023/03/13 04:27:47;;;;;;;1.60;1.50;;;5.70;99.90;;;;;;4982810;28;20034;-35
2023/03/13 04:30:13;;;;;;;1.35;1.25;;;5.70;99.90;;;;;;4979809;28;20037;-35
2023/03/13 04:32:39;;;;;;;2.75;1.50;;;5.80;99.90;;;;;;4981499;28;20027;-33
2023/03/13 04:35:05;;;;;;;4.10;1.50;;;5.80;99.90;;;;;;4977339;28;20081;-34
2023/03/13 04:37:30;;;;;;;1.20;1.00;;;5.80;99.90;;;;;;4981197;28;20361;-34
2023/03/13 04:39:56;;;;;;;1.05;0.90;;;5.90;99.90;;;;;;4987343;28;20037;-35
2023/03/13 04:42:22;;;;;;;1.13;1.13;;;6.10;99.90;;;;;;4981158;28;20034;-37
2023/03/13 04:44:48;;;;;;;1.23;0.98;;;6.20;99.90;;;;;;4986153;28;20026;-33
2023/03/13 04:47:14;;;;;;;1.42;1.20;;;6.40;99.90;;;;;;4983296;28;20057;-33
2023/03/13 04:49:39;;;;;;;1.20;1.10;;;6.50;99.90;;;;;;4983141;28;20026;-34
2023/03/13 04:52:05;;;;;;;2.65;1.20;;;6.60;99.90;;;;;;4983297;28;20042;-32
2023/03/13 04:54:31;;;;;;;3.85;1.00;;;6.70;99.90;;;;;;4989084;28;20727;-33
2023/03/13 04:56:56;;;;;;;5.05;1.40;;;6.70;99.90;;;;;;4975836;28;20030;-31
2023/03/13 04:59:22;;;;;;;1.85;1.17;;;6.80;99.90;;;;;;4985242;28;20490;-34
2023/03/13 05:01:47;;;;;;;1.85;1.15;;;6.80;99.90;;;;;;4979095;28;20137;-34
2023/03/13 05:04:13;;;;;;;1.58;1.27;;;6.90;99.90;;;;;;4989438;28;20033;-36
2023/03/13 05:06:39;;;;;;;2.40;1.75;;;6.90;99.90;;;;;;4978672;28;20022;-34
2023/03/13 05:09:05;;;;;;;2.08;1.13;;;6.90;99.90;;;;;;4979926;28;20034;-35
2023/03/13 05:11:31;;;;;;;2.53;1.50;;;6.90;99.90;;;;;;4980367;28;20023;-36
2023/03/13 05:13:57;;;;;;;1.92;1.50;;;6.90;99.90;;;;;;4983541;28;20038;-35
2023/03/13 05:16:22;;;;;;;1.33;1.20;;;6.90;99.90;;;;;;4987284;28;20751;-32
2023/03/13 05:18:48;;;;;;;1.50;1.40;;;6.90;99.90;;;;;;4981098;28;20023;-34
2023/03/13 05:21:13;;;;;;;2.50;1.30;;;7.00;99.90;;;;;;4985578;28;20396;-33
2023/03/13 05:23:39;;;;;;;1.20;0.95;;;7.00;99.90;;;;;;4984305;28;20080;-33
2023/03/13 05:26:05;;;;;;;2.30;1.10;;;7.00;99.90;;;;;;4979399;28;20046;-35
2023/03/13 05:28:30;;;;;;;2.00;1.00;;;7.00;99.90;;;;;;4987874;28;20480;-33
2023/03/13 05:30:56;;;;;;;1.63;1.20;;;7.00;99.90;;;;;;4977573;28;20093;-35
2023/03/13 05:33:22;;;;;;;1.48;1.38;;;7.10;99.90;;;;;;4980146;28;20614;-32
2023/03/13 05:35:47;;;;;;;2.50;1.20;;;7.10;99.90;;;;;;4979251;28;20045;-32
2023/03/13 05:38:13;;;;;;;2.15;1.95;;;7.10;99.90;;;;;;4980858;28;20481;-34
2023/03/13 05:40:39;;;;;;;7.35;4.40;;;7.10;99.90;;;;;;4986488;28;20034;-32
2023/03/13 05:43:05;;;;;;;3.25;2.60;;;7.10;99.90;;;;;;4982164;28;20038;-34
2023/03/13 05:45:31;;;;;;;3.95;2.20;;;7.20;99.90;;;;;;4980931;28;20050;-34
2023/03/13 05:47:59;;;;;;;2.40;1.35;;;7.20;99.90;;;;;;4985648;28;20034;-35
2023/03/13 05:50:25;;;;;;;2.05;1.20;;;7.20;99.90;;;;;;4984579;28;20449;-34
2023/03/13 05:52:51;;;;;;;2.60;1.10;;;7.30;99.90;;;;;;4979020;28;20042;-31
2023/03/13 05:55:17;;;;;;;1.75;1.17;;;7.30;99.90;;;;;;4978376;28;20041;-33
2023/03/13 05:57:47;;;;;;;1.60;1.20;;;7.30;99.90;;;;;;4983558;28;20109;-34
2023/03/13 06:00:17;;;;;;;1.60;1.50;;;7.40;99.90;;;;;;4982001;28;20031;-33
2023/03/13 06:02:43;;;;;;;3.40;1.27;;;7.40;99.90;;;;;;4977407;28;20046;-35
2023/03/13 06:05:09;;;;;;;1.00;1.00;;;7.60;99.90;;;;;;4983517;28;20030;-34
2023/03/13 06:07:35;;;;;;;0.88;0.88;;;7.60;99.90;;;;;;4978341;28;20034;-35
2023/03/13 06:10:01;;;;;;;2.22;1.30;;;7.80;99.90;;;;;;4979912;28;20069;-35
2023/03/13 06:12:26;;;;;;;0.63;0.63;;;7.90;99.90;;;;;;4974624;28;20484;-33
2023/03/13 06:14:52;;;;;;;1.52;1.23;;;7.90;99.90;;;;;;4984407;28;20102;-35
2023/03/13 06:17:17;;;;;;;1.02;0.73;;;8.00;99.90;;;;;;4974740;28;20030;-34
2023/03/13 06:19:44;;;;;;;3.92;0.80;;;8.10;99.90;;;;;;4981031;28;20625;-35
2023/03/13 06:22:10;;;;;;;1.65;0.80;;;8.20;99.90;;;;;;4981959;28;20106;-34
2023/03/13 06:24:35;;;;;;;0.70;0.70;;;8.30;99.90;;;;;;4980967;28;20161;-32
2023/03/13 06:27:01;;;;;;;0.60;0.50;;;8.40;99.90;;;;;;4971363;28;20039;-34
2023/03/13 06:29:27;;;;;;;1.35;0.68;;;8.40;99.90;;;;;;4981741;28;20612;-35
2023/03/13 06:31:52;;;;;;;0.93;0.80;;;8.40;99.90;;;;;;4977819;28;20097;-36
2023/03/13 06:34:18;;;;;;;0.75;0.70;;;8.50;99.90;;;;;;4989004;28;20027;-33
2023/03/13 06:36:44;;;;;;;0.80;0.80;;;8.50;99.90;;;;;;4980460;28;20419;-35
2023/03/13 06:39:11;;;;;;;2.10;1.00;;;8.70;99.90;;;;;;5002136;28;20034;-35
2023/03/13 06:41:37;;;;;;;0.80;0.80;;;8.70;99.90;;;;;;4981138;28;20037;-33
2023/03/13 06:44:05;;;;;;;2.03;0.90;;;8.70;99.90;;;;;;4981291;28;20042;-32
2023/03/13 06:46:31;;;;;;;;;;;8.70;99.90;;;;;;4982491;28;20035;-34
2023/03/13 06:48:57;;;;;;;1.75;1.00;;;8.70;99.90;;;;;;4990049;28;20346;-33
2023/03/13 06:51:25;;;;;;;0.80;0.80;;;8.80;99.90;;;;;;4987978;28;20050;-33
2023/03/13 06:53:51;;;;;;;6.10;1.45;;;8.90;99.90;;;;;;4991080;28;20411;-34
2023/03/13 06:56:17;;;;;;;1.00;0.88;;;8.90;99.90;;;;;;4980927;28;20041;-34
2023/03/13 06:58:45;;;;;;;2.00;0.70;;;8.90;99.90;;;;;;4981642;28;20508;-32
2023/03/13 07:01:13;;;;;;;1.02;1.02;;;8.90;99.90;;;;;;4984993;28;20042;-34
2023/03/13 07:03:42;;;;;;;1.50;0.90;;;8.90;99.90;;;;;;4980617;28;20514;-34
2023/03/13 07:06:09;;;;;;;1.40;0.90;;;9.00;99.90;;;;;;4989284;28;20030;-34
2023/03/13 07:08:35;;;;;;;0.75;0.75;;;9.00;99.90;;;;;;4984927;28;20038;-34
2023/03/13 07:11:08;;;;;;;1.00;1.00;;;9.10;99.90;;;;;;4987557;28;20117;-33
2023/03/13 07:13:35;;;;;;;0.80;0.80;;;9.30;99.90;;;;;;4980434;28;20030;-33
2023/03/13 07:16:03;;;;;;;3.17;0.80;;;9.40;99.90;;;;;;4984953;28;20038;-34
2023/03/13 07:18:29;;;;;;;0.80;0.80;;;9.40;99.90;;;;;;4980831;28;20030;-34
2023/03/13 07:20:57;;;;;;;1.05;1.00;;;9.40;99.90;;;;;;4985173;28;20046;-34
2023/03/13 07:23:24;;;;;;;0.90;0.90;;;9.50;99.90;;;;;;4982439;28;20046;-33
2023/03/13 07:25:53;;;;;;;1.10;0.80;;;9.50;99.90;;;;;;4982674;28;20042;-33
2023/03/13 07:28:19;;;;;;;2.28;0.93;;;9.60;99.90;;;;;;4976787;28;20034;-35
2023/03/13 07:30:44;;;;;;;1.00;1.00;;;9.70;99.90;;;;;;4978641;28;20038;-35
2023/03/13 07:33:10;;;;;;;0.90;0.70;;;9.70;99.90;;;;;;4973144;28;20031;-32
2023/03/13 07:35:36;;;;;;;1.15;0.82;;;9.70;99.90;;;;;;4990602;28;20034;-35
2023/03/13 07:38:01;;;;;;;0.70;0.70;;;9.80;99.90;;;;;;4980457;28;20061;-35
2023/03/13 07:40:27;;;;;;;1.40;0.95;;;9.70;99.90;;;;;;4970147;28;20116;-35
2023/03/13 07:42:52;;;;;;;0.90;0.90;;;9.70;99.90;;;;;;4985556;28;20038;-32
2023/03/13 07:45:18;;;;;;;0.80;0.80;;;9.60;99.90;;;;;;4982285;28;20038;-34
2023/03/13 07:47:43;;;;;;;1.35;1.00;;;9.60;99.90;;;;;;4982767;28;20041;-33
2023/03/13 07:50:10;;;;;;;0.95;0.80;;;9.60;99.90;;;;;;4976200;28;20047;-31
2023/03/13 07:52:35;;;;;;;0.80;0.80;;;9.60;99.90;;;;;;4985969;28;20026;-33
2023/03/13 07:55:01;;;;;;;0.77;0.70;;;9.70;99.90;;;;;;4977615;28;20443;-35
2023/03/13 07:57:26;;;;;;;2.15;0.90;;;9.70;99.90;;;;;;4982800;28;20034;-34
2023/03/13 07:59:52;;;;;;;2.05;0.75;;;9.80;99.90;;;;;;4991170;28;20040;-33
2023/03/13 08:02:17;;;;;;;0.90;0.90;;;9.90;99.90;;;;;;4979112;28;20042;-33
2023/03/13 08:04:43;;;;;;;0.60;0.60;;;9.90;99.90;;;;;;4976524;28;20027;-32
2023/03/13 08:07:10;;;;;;;1.50;0.70;;;10.00;99.90;;;;;;4986865;28;20031;-32
2023/03/13 08:09:35;;;;;;;0.95;0.80;;;10.00;99.90;;;;;;4981482;28;20029;-33
2023/03/13 08:12:01;;;;;;;0.77;0.77;;;10.10;99.90;;;;;;4982081;28;20050;-31
2023/03/13 08:14:27;;;;;;;0.98;0.80;;;10.10;99.90;;;;;;4984653;28;20506;-34
2023/03/13 08:16:53;;;;;;;0.80;0.80;;;10.30;99.90;;;;;;4982683;28;20041;-34
2023/03/13 08:19:18;;;;;;;0.80;0.73;;;10.50;99.90;;;;;;4984241;28;20038;-32
2023/03/13 08:21:44;;;;;;;2.17;0.90;;;10.60;99.90;;;;;;4985524;28;20523;-34
2023/03/13 08:24:11;;;;;;;1.00;0.80;;;10.60;99.90;;;;;;4981275;28;20030;-35
2023/03/13 08:26:39;;;;;;;0.75;0.70;;;10.70;99.90;;;;;;4980054;28;20041;-33
2023/03/13 08:29:09;;;;;;;1.45;0.88;;;10.80;99.90;;;;;;4981215;28;20031;-35
2023/03/13 08:31:38;;;;;;;0.65;0.65;;;10.80;99.90;;;;;;4983100;28;20030;-33
2023/03/13 08:34:03;;;;;;;2.38;0.88;;;10.90;99.90;;;;;;4981379;28;20026;-32
2023/03/13 08:36:36;;;;;;;1.70;1.20;;;11.00;99.90;;;;;;4976859;28;20038;-31
2023/03/13 08:39:20;;;;;;;0.85;0.47;;;11.10;99.90;;;;;;4977375;28;20447;-32
2023/03/13 08:41:46;;;;;;;1.17;0.75;;;11.10;99.90;;;;;;4983469;28;20033;-33
2023/03/13 08:44:14;;;;;;;0.55;0.55;;;11.20;99.90;;;;;;4978908;28;20057;-34
2023/03/13 08:46:39;;;;;;;2.25;0.63;;;11.30;99.90;;;;;;4983964;28;20122;-32
2023/03/13 08:49:07;;;;;;;0.73;0.70;;;11.40;99.90;;;;;;4979353;28;20451;-33
2023/03/13 08:51:33;;;;;;;0.60;0.60;;;11.60;99.90;;;;;;4986254;28;20058;-31
2023/03/13 08:54:00;;;;;;;0.80;0.80;;;11.80;99.90;;;;;;4995245;28;20030;-31
2023/03/13 08:56:29;;;;;;;1.02;0.60;;;11.80;99.90;;;;;;4977738;28;20042;-34
2023/03/13 08:58:55;;;;;;;;;;;12.00;99.90;;;;;;4982787;28;20034;-32
2023/03/13 09:01:24;;;;;;;1.42;0.70;;;12.10;99.90;;;;;;4983869;28;19925;-34
2023/03/13 09:03:50;;;;;;;0.70;0.70;;;12.20;99.90;;;;;;4983671;28;20432;-33
2023/03/13 09:06:16;;;;;;;0.88;0.68;;;12.40;99.90;;;;;;4975257;28;20503;-32
2023/03/13 09:08:42;;;;;;;0.75;0.75;;;12.50;99.90;;;;;;4974625;28;20273;-31
2023/03/13 09:11:11;;;;;;;0.63;0.63;;;12.60;99.90;;;;;;4979178;28;20026;-32
2023/03/13 09:13:40;;;;;;;0.60;0.60;;;12.70;99.90;;;;;;4979202;28;20030;-34
2023/03/13 09:16:11;;;;;;;0.55;0.55;;;12.90;99.90;;;;;;4982087;28;20035;-31
2023/03/13 09:18:37;;;;;;;0.98;0.75;;;12.90;99.90;;;;;;4975553;28;20081;-34
2023/03/13 09:21:08;;;;;;;0.70;0.70;;;13.00;99.90;;;;;;4983043;28;20084;-33
2023/03/13 09:23:34;;;;;;;1.20;0.60;;;12.90;99.90;;;;;;4997575;28;20570;-34
2023/03/13 09:26:00;;;;;;;0.60;0.60;;;12.90;99.90;;;;;;4978889;28;20073;-35
2023/03/13 09:28:26;;;;;;;0.55;0.50;;;12.90;99.90;;;;;;4979705;28;20038;-33
2023/03/13 09:30:52;;;;;;;1.85;0.73;;;12.90;99.90;;;;;;4984448;28;20045;-35
2023/03/13 09:33:19;;;;;;;0.73;0.73;;;12.90;99.90;;;;;;5010365;28;20018;-35
2023/03/13 09:35:51;;;;;;;0.60;0.60;;;13.00;99.90;;;;;;4983891;28;20038;-31
2023/03/13 09:38:18;;;;;;;0.63;0.50;;;12.90;99.90;;;;;;4974535;28;20104;-32
2023/03/13 09:40:47;;;;;;;1.00;0.95;;;12.90;99.90;;;;;;4975221;28;20044;-34
2023/03/13 09:43:38;;;;;;;0.40;0.40;;;13.00;99.90;;;;;;4980047;28;20038;-35
2023/03/13 09:46:16;;;;;;;1.13;0.77;;;13.10;99.90;;;;;;4981163;28;20053;-33
2023/03/13 09:48:46;;;;;;;0.85;0.70;;;13.20;99.90;;;;;;4982280;28;20046;-31
2023/03/13 09:51:23;;;;;;;0.60;0.60;;;13.30;99.90;;;;;;4977023;28;20350;-34
2023/03/13 09:54:13;;;;;;;1.00;0.70;;;13.50;99.90;;;;;;4981124;28;20038;-34
2023/03/13 09:56:51;;;;;;;1.65;0.45;;;13.70;99.90;;;;;;4981952;28;20034;-32
2023/03/13 09:59:42;;;;;;;0.52;0.52;;;14.00;99.90;;;;;;4979244;28;20034;-30
2023/03/13 10:02:35;;;;;;;1.27;0.60;;;13.90;99.90;;;;;;4986134;28;20049;-32
2023/03/13 10:05:19;;;;;;;1.40;0.50;;;14.10;99.90;;;;;;4972810;28;20500;-33
2023/03/13 10:07:45;;;;;;;1.98;0.63;;;14.30;99.90;;;;;;4982114;28;20066;-33
2023/03/13 10:10:17;;;;;;;0.93;0.63;;;14.50;99.90;;;;;;4981202;28;20031;-33
2023/03/13 10:12:47;;;;;;;4.80;0.80;;;14.50;99.90;;;;;;4978917;28;20176;-34
2023/03/13 10:15:45;;;;;;;1.05;0.70;;;14.60;99.90;;;;;;4977412;28;20031;-33
2023/03/13 10:18:22;;;;;;;0.63;0.60;;;14.60;99.90;;;;;;4982573;28;20026;-32
2023/03/13 10:20:51;;;;;;;2.60;0.68;;;14.80;99.90;;;;;;4982021;28;20034;-32
2023/03/13 10:23:39;;;;;;;0.73;0.73;;;14.60;99.90;;;;;;4980104;28;20034;-31
2023/03/13 10:26:07;;;;;;;1.42;0.40;;;14.80;99.90;;;;;;4983831;28;20034;-33
2023/03/13 10:28:33;;;;;;;0.60;0.60;;;14.90;99.10;;;;;;4981904;28;20038;-35
2023/03/13 10:31:08;;;;;;;0.55;0.55;;;15.20;99.90;;;;;;4979268;28;20130;-32
2023/03/13 10:33:37;;;;;;;0.57;0.57;;;15.20;99.60;;;;;;4984382;28;20570;-33
2023/03/13 10:36:13;;;;;;;0.80;0.50;;;15.30;98.50;;;;;;4977034;28;20146;-34
2023/03/13 10:38:52;;;;;;;0.40;0.40;;;15.30;99.90;;;;;;4985859;28;20416;-33
2023/03/13 10:41:30;;;;;;;1.50;0.68;;;15.40;99.10;;;;;;4984227;28;20042;-32
2023/03/13 10:44:05;;;;;;;0.95;0.50;;;15.60;99.90;;;;;;5008515;28;20240;-32
2023/03/13 10:46:34;;;;;;;0.88;0.50;;;15.90;97.40;;;;;;4986999;28;20030;-33
2023/03/13 10:49:03;;;;;;;1.77;0.68;;;15.70;99.90;;;;;;4982153;28;20096;-32
2023/03/13 10:51:39;;;;;;;0.90;0.65;;;15.60;96.80;;;;;;4982655;28;20062;-33
2023/03/13 10:54:25;;;;;;;2.25;0.90;;;15.50;98.20;;;;;;4974989;28;20361;-33
2023/03/13 10:57:06;;;;;;;0.75;0.60;;;15.50;99.90;;;;;;4979721;28;20043;-33
2023/03/13 10:59:37;;;;;;;2.22;1.33;;;15.50;99.00;;;;;;4987441;28;20046;-30
2023/03/13 11:02:16;;;;;;;2.15;0.70;;;15.60;98.40;;;;;;4982830;28;20126;-33
2023/03/13 11:04:43;;;;;;;0.88;0.80;;;15.60;99.00;;;;;;4987642;28;20074;-35
2023/03/13 11:07:15;;;;;;;0.90;0.70;;;15.50;96.00;;;;;;4986333;28;20030;-32
2023/03/13 11:09:41;;;;;;;1.15;0.52;;;15.70;99.90;;;;;;4983687;28;20106;-33
2023/03/13 11:12:27;;;;;;;1.13;0.70;;;15.80;99.90;;;;;;4992519;28;20093;-32
2023/03/13 11:14:58;;;;;;;1.23;0.85;;;15.80;99.90;;;;;;4986507;28;20038;-31
2023/03/13 11:17:39;;;;;;;1.00;0.70;;;15.70;98.30;;;;;;4984118;28;20034;-32
2023/03/13 11:20:20;;;;;;;0.90;0.90;;;15.70;99.80;;;;;;5011908;28;20370;-34
2023/03/13 11:23:18;;;;;;;1.30;0.80;;;15.70;99.90;;;;;;4980552;28;20096;-33
2023/03/13 11:26:12;;;;;;;0.70;0.70;;;15.70;99.90;;;;;;4980473;28;20046;-34
2023/03/13 11:28:56;;;;;;;0.95;0.95;;;15.80;99.40;;;;;;4987337;28;20027;-32
2023/03/13 11:31:34;;;;;;;1.38;0.90;;;15.90;99.90;;;;;;4975310;28;20135;-34
2023/03/13 11:34:28;;;;;;;2.00;0.73;;;15.90;99.90;;;;;;4975361;28;20540;-32
2023/03/13 11:37:04;;;;;;;0.80;0.80;;;16.00;99.50;;;;;;4983472;28;20064;-32
2023/03/13 11:40:20;;;;;;;1.55;0.88;;;16.10;99.90;;;;;;4989489;28;20033;-32
2023/03/13 11:43:03;;;;;;;0.77;0.77;;;16.30;98.70;;;;;;4999862;28;20049;-36
2023/03/13 11:45:51;;;;;;;0.82;0.80;;;16.30;97.30;;;;;;4984692;28;20097;-34
2023/03/13 11:48:24;;;;;;;3.28;1.42;;;16.10;96.70;;;;;;4979674;28;20034;-34
2023/03/13 11:51:19;;;;;;;0.98;0.70;;;16.20;99.70;;;;;;4981067;28;20051;-32
2023/03/13 11:54:06;;;;;;;2.08;0.80;;;16.30;99.90;;;;;;4980413;28;20098;-30
2023/03/13 11:56:39;;;;;;;0.77;0.77;;;16.40;99.90;;;;;;4984871;28;20035;-33
2023/03/13 11:59:28;;;;;;;0.80;0.80;;;16.40;99.90;;;;;;4985932;28;20065;-31
2023/03/13 12:02:21;;;;;;;0.70;0.70;;;16.20;97.00;;;;;;4986459;28;20396;-30
2023/03/13 12:04:58;;;;;;;1.20;0.90;;;16.10;98.20;;;;;;4984889;28;20044;-32
2023/03/13 12:07:40;;;;;;;0.50;0.50;;;16.30;99.90;;;;;;4987540;28;20109;-31
2023/03/13 12:10:16;;;;;;;0.80;0.73;;;16.50;99.20;;;;;;4979332;28;20054;-32
2023/03/13 12:12:48;;;;;;;0.57;0.55;;;16.50;98.00;;;;;;4978882;28;20122;-33
2023/03/13 12:15:21;;;;;;;2.38;0.90;;;16.60;99.90;;;;;;4983050;28;20101;-31
2023/03/13 12:17:59;;;;;;;2.88;1.23;;;16.60;98.60;;;;;;4984866;28;20034;-30
2023/03/13 12:20:48;;;;;;;0.90;0.85;;;16.60;99.70;;;;;;4983612;28;20407;-33
2023/03/13 12:23:22;;;;;;;2.53;0.80;;;16.80;97.90;;;;;;4964264;28;20354;-29
2023/03/13 12:26:12;;;;;;;1.02;0.85;;;16.80;99.90;;;;;;4975812;28;20678;-31
2023/03/13 12:28:43;;;;;;;2.63;1.20;;;16.70;96.60;;;;;;4981079;28;20114;-32
2023/03/13 12:31:21;;;;;;;3.10;0.90;;;16.70;97.70;;;;;;4979420;28;20030;-30
2023/03/13 12:34:05;;;;;;;1.00;0.90;;;16.70;98.00;;;;;;4980790;28;20026;-30
2023/03/13 12:36:51;;;;;;;2.28;0.80;;;16.80;99.00;;;;;;4983071;28;20038;-29
2023/03/13 12:39:33;;;;;;;2.67;1.00;;;16.80;96.20;;;;;;4973801;28;20206;-32
2023/03/13 12:42:11;;;;;;;3.00;1.15;;;16.90;99.80;;;;;;4992211;28;20034;-31
2023/03/13 12:44:38;;;;;;;3.30;0.90;;;16.80;97.20;;;;;;4983223;28;20026;-32
2023/03/13 12:47:18;;;;;;;0.90;0.88;;;16.90;97.40;;;;;;4980044;28;20038;-31
2023/03/13 12:50:21;;;;;;;2.35;0.80;;;17.00;96.10;;;;;;4985935;28;20510;-35
2023/03/13 12:53:15;;;;;;;1.75;1.10;;;17.10;96.80;;;;;;4981059;28;20022;-31
2023/03/13 12:55:55;;;;;;;1.65;1.15;;;17.00;94.70;;;;;;4988337;28;20038;-31
2023/03/13 12:58:44;;;;;;;1.50;1.08;;;17.10;93.70;;;;;;4982709;28;20095;-31
2023/03/13 13:01:22;;;;;;;1.17;0.82;;;17.00;93.40;;;;;;4976756;28;20046;-30
2023/03/13 13:03:59;;;;;;;0.85;0.70;;;17.20;94.50;;;;;;4978867;28;20162;-30
2023/03/13 13:06:26;;;;;;;1.20;0.98;;;17.30;95.80;;;;;;4982554;28;20061;-31
2023/03/13 13:08:51;;;;;;;2.70;0.90;;;17.30;96.00;;;;;;4975379;28;20029;-30